createdAt,value
2023-03-29T00:00:00.111Z,73.7
2023-03-29T00:05:00.113Z,74.1
2023-03-29T00:10:00.100Z,74.4
2023-03-29T00:15:00.163Z,74.7
2023-03-29T00:20:00.095Z,74.9
2023-03-29T00:25:00.115Z,75
2023-03-29T00:30:00.104Z,75
2023-03-29T00:35:00.125Z,74.9
2023-03-29T00:40:00.097Z,74.9
2023-03-29T00:45:00.093Z,74.9
2023-03-29T00:50:00.113Z,74.7
2023-03-29T00:55:00.141Z,74.5
2023-03-29T01:00:00.136Z,74.4
2023-03-29T01:05:00.129Z,74.4
2023-03-29T01:10:00.119Z,73.8
2023-03-29T01:15:00.119Z,74.4
2023-03-29T01:20:00.123Z,74.3
2023-03-29T01:25:00.122Z,74.3
2023-03-29T01:30:00.143Z,74
2023-03-29T01:35:00.119Z,73.9
2023-03-29T01:40:00.120Z,73.6
2023-03-29T01:45:00.083Z,73.2
2023-03-29T01:50:00.122Z,73
2023-03-29T01:55:00.122Z,73.1
2023-03-29T02:00:00.136Z,73.4
2023-03-29T02:05:00.119Z,73.4
2023-03-29T02:10:00.154Z,72.8
2023-03-29T02:15:00.150Z,72.4
2023-03-29T02:20:00.146Z,71.9
2023-03-29T02:25:00.124Z,72
2023-03-29T02:30:00.135Z,71.9
2023-03-29T02:35:00.133Z,71.7
2023-03-29T02:40:00.104Z,71.3
2023-03-29T02:45:00.157Z,71.3
2023-03-29T02:50:00.132Z,71.1
2023-03-29T02:55:00.137Z,71
2023-03-29T03:00:00.104Z,71
2023-03-29T03:05:00.112Z,71.2
2023-03-29T03:10:00.124Z,71.1
2023-03-29T03:15:00.147Z,71.1
2023-03-29T03:20:00.165Z,71
2023-03-29T03:25:00.111Z,70.7
2023-03-29T03:30:00.136Z,70.9
2023-03-29T03:35:00.147Z,70.9
2023-03-29T03:40:00.122Z,71
2023-03-29T03:45:00.125Z,71.3
2023-03-29T03:50:00.114Z,71.3
2023-03-29T03:55:00.144Z,71.2
2023-03-29T04:00:00.158Z,71.4
2023-03-29T04:05:00.121Z,71.5
2023-03-29T04:10:00.112Z,71.4
2023-03-29T04:15:00.160Z,71.1
2023-03-29T04:20:00.123Z,71.8
2023-03-29T04:25:00.105Z,72.2
2023-03-29T04:30:00.172Z,72.9
2023-03-29T04:35:00.121Z,73.5
2023-03-29T04:40:00.165Z,74.4
2023-03-29T04:45:00.165Z,75.2
2023-03-29T04:50:00.129Z,76.1
2023-03-29T04:55:00.145Z,76.3
2023-03-29T05:00:00.178Z,76.8
2023-03-29T05:05:00.134Z,77.1
2023-03-29T05:10:00.130Z,77.2
2023-03-29T05:15:00.182Z,77.5
2023-03-29T05:20:00.137Z,77.7
2023-03-29T05:25:00.119Z,77.9
2023-03-29T05:30:00.120Z,78.1
2023-03-29T05:35:00.156Z,77.8
2023-03-29T05:40:05.419Z,78.1
2023-03-29T05:45:00.118Z,77.8
2023-03-29T05:50:00.111Z,77.3
2023-03-29T05:55:00.132Z,76.6
2023-03-29T06:00:00.163Z,76.9
2023-03-29T06:05:00.246Z,77.5
2023-03-29T06:10:00.142Z,78
2023-03-29T06:15:00.134Z,78.5
2023-03-29T06:20:00.136Z,78.8
2023-03-29T06:25:00.122Z,79.1
2023-03-29T06:30:00.137Z,78.8
2023-03-29T06:35:00.123Z,78.9
2023-03-29T06:40:00.141Z,79
2023-03-29T06:45:00.118Z,79.3
2023-03-29T06:50:00.144Z,79.7
2023-03-29T06:55:00.187Z,80.5
2023-03-29T07:00:00.134Z,81.1
2023-03-29T07:05:00.109Z,81.5
2023-03-29T07:10:00.147Z,81.5
2023-03-29T07:15:00.228Z,81.4
2023-03-29T07:20:00.129Z,81.7
2023-03-29T07:25:00.141Z,81.7
2023-03-29T07:30:00.130Z,82
2023-03-29T07:35:00.153Z,81.8
2023-03-29T07:40:00.135Z,82.4
2023-03-29T07:45:00.161Z,82.3
2023-03-29T07:50:00.119Z,82.8
2023-03-29T07:55:00.142Z,80.1
2023-03-29T08:00:00.128Z,80
2023-03-29T08:05:00.110Z,79.1
2023-03-29T08:10:00.121Z,79.2
2023-03-29T08:15:00.148Z,78.7
2023-03-29T08:20:00.142Z,77.7
2023-03-29T08:25:00.155Z,78.6
2023-03-29T08:30:00.117Z,77.8
2023-03-29T08:35:00.129Z,77.5
2023-03-29T08:40:00.136Z,77.2
2023-03-29T08:45:00.151Z,76.9
2023-03-29T08:50:00.139Z,76.6
2023-03-29T08:55:00.153Z,76.5
2023-03-29T09:00:00.123Z,75.5
2023-03-29T09:05:00.120Z,74.1
2023-03-29T09:10:00.124Z,73.7
2023-03-29T09:15:00.170Z,73.3
2023-03-29T09:20:00.150Z,73.2
2023-03-29T09:25:00.132Z,73.5
2023-03-29T09:30:00.130Z,71.9
2023-03-29T09:35:00.211Z,72.1
2023-03-29T09:40:00.187Z,71.8
2023-03-29T09:45:00.084Z,71.8
2023-03-29T09:50:00.104Z,71.7
2023-03-29T09:55:00.134Z,70.7
2023-03-29T10:00:00.186Z,70.8
2023-03-29T10:05:00.143Z,70.2
2023-03-29T10:10:00.136Z,69.9
2023-03-29T10:15:00.214Z,67.9
2023-03-29T10:20:01.534Z,67.1
2023-03-29T10:25:00.191Z,66.6
2023-03-29T10:30:00.166Z,62.6
2023-03-29T10:35:00.242Z,60.1
2023-03-29T10:40:00.130Z,54.8
2023-03-29T10:45:00.162Z,51.5
2023-03-29T10:50:00.110Z,51
2023-03-29T10:55:00.154Z,50.1
2023-03-29T11:00:00.112Z,49.5
2023-03-29T11:05:00.129Z,47.7
2023-03-29T11:10:00.130Z,49.3
2023-03-29T11:15:00.188Z,50.3
2023-03-29T11:20:00.910Z,50.8
2023-03-29T11:25:00.111Z,50.1
2023-03-29T11:30:00.138Z,50.9
2023-03-29T11:35:00.138Z,51.7
2023-03-29T11:40:00.142Z,51.5
2023-03-29T11:45:00.099Z,50
2023-03-29T11:50:00.157Z,49.2
2023-03-29T11:55:00.143Z,48.7
2023-03-29T12:00:00.108Z,46.7
2023-03-29T12:05:00.130Z,45.8
2023-03-29T12:10:00.150Z,46.5
2023-03-29T12:15:00.127Z,47.8
2023-03-29T12:20:00.127Z,46.5
2023-03-29T12:25:00.126Z,47
2023-03-29T12:30:00.131Z,46.3
2023-03-29T12:35:00.116Z,47.9
2023-03-29T12:40:00.129Z,49.1
2023-03-29T12:45:00.100Z,47.5
2023-03-29T12:50:00.134Z,47
2023-03-29T12:55:00.146Z,46.7
2023-03-29T13:00:00.132Z,47.2
2023-03-29T13:05:00.156Z,47.7
2023-03-29T13:10:00.182Z,47.4
2023-03-29T13:15:00.137Z,48.3
2023-03-29T13:20:00.122Z,48.8
2023-03-29T13:25:00.206Z,48.2
2023-03-29T13:30:00.134Z,48.2
2023-03-29T13:35:00.121Z,48.6
2023-03-29T13:40:00.115Z,48.3
2023-03-29T13:45:00.133Z,48.3
2023-03-29T13:50:00.145Z,47.9
2023-03-29T13:55:00.129Z,47.1
2023-03-29T14:00:00.123Z,48.4
2023-03-29T14:05:00.127Z,48.5
2023-03-29T14:10:00.122Z,49
2023-03-29T14:15:00.160Z,49.2
2023-03-29T14:20:00.108Z,49.5
2023-03-29T14:25:00.120Z,50
2023-03-29T14:30:00.125Z,50.4
2023-03-29T14:35:00.143Z,50.4
2023-03-29T14:40:00.115Z,50.1
2023-03-29T14:45:00.101Z,50.8
2023-03-29T14:50:00.131Z,51.2
2023-03-29T14:55:00.154Z,51.7
2023-03-29T15:00:00.146Z,52.2
2023-03-29T15:05:00.099Z,52.2
2023-03-29T15:10:00.210Z,52.5
2023-03-29T15:15:00.120Z,53.5
2023-03-29T15:20:00.269Z,54.2
2023-03-29T15:25:00.131Z,55.1
2023-03-29T15:30:00.104Z,55.7
2023-03-29T15:35:00.149Z,56.2
2023-03-29T15:40:00.171Z,55.1
2023-03-29T15:45:00.100Z,57.1
2023-03-29T15:50:00.109Z,57.7
2023-03-29T15:55:00.163Z,58.1
2023-03-29T16:00:00.130Z,58.7
2023-03-29T16:05:00.127Z,59.5
2023-03-29T16:10:00.145Z,60.4
2023-03-29T16:15:00.119Z,61.9
2023-03-29T16:20:00.119Z,63.8
2023-03-29T16:25:00.119Z,65.9
2023-03-29T16:30:00.141Z,68.4
2023-03-29T16:35:00.128Z,70.8
2023-03-29T16:40:00.145Z,71.7
2023-03-29T16:45:00.117Z,72.9
2023-03-29T16:50:00.172Z,74.4
2023-03-29T16:55:00.123Z,75.5
2023-03-29T17:00:00.377Z,73
2023-03-29T17:05:00.107Z,73
2023-03-29T17:10:00.128Z,73
2023-03-29T17:15:00.122Z,73.1
2023-03-29T17:20:00.140Z,73.1
2023-03-29T17:25:00.128Z,73.2
2023-03-29T17:30:00.136Z,73.2
2023-03-29T17:35:00.126Z,73.2
2023-03-29T17:40:00.111Z,73.2
2023-03-29T17:45:00.118Z,73.5
2023-03-29T17:50:00.110Z,73.7
2023-03-29T17:55:00.140Z,74.2
2023-03-29T18:00:00.107Z,74.4
2023-03-29T18:05:00.115Z,74.5
2023-03-29T18:10:00.134Z,74.7
2023-03-29T18:15:00.167Z,75.1
2023-03-29T18:20:00.096Z,75.4
2023-03-29T18:25:00.139Z,75.5
2023-03-29T18:30:00.164Z,75.7
2023-03-29T18:35:00.133Z,75.8
2023-03-29T18:40:00.159Z,75.8
2023-03-29T18:45:00.092Z,76.1
2023-03-29T18:50:00.132Z,76.4
2023-03-29T18:55:00.149Z,76.8
2023-03-29T19:00:00.161Z,76.6
2023-03-29T19:05:00.122Z,75.9
2023-03-29T19:10:00.124Z,75.8
2023-03-29T19:15:00.131Z,75.7
2023-03-29T19:20:00.137Z,75.4
2023-03-29T19:25:00.117Z,76.4
2023-03-29T19:30:00.128Z,76.6
2023-03-29T19:35:00.130Z,77.9
2023-03-29T19:40:00.139Z,76.9
2023-03-29T19:45:00.108Z,77.7
2023-03-29T19:50:00.141Z,79.7
2023-03-29T19:55:00.153Z,76.1
2023-03-29T20:00:00.133Z,76
2023-03-29T20:05:00.136Z,76.4
2023-03-29T20:10:00.132Z,75.9
2023-03-29T20:15:00.129Z,76
2023-03-29T20:20:00.141Z,75.9
2023-03-29T20:25:00.125Z,76.2
2023-03-29T20:30:00.148Z,76.3
2023-03-29T20:35:00.122Z,76.5
2023-03-29T20:40:00.137Z,76.7
2023-03-29T20:45:00.138Z,76.6
2023-03-29T20:50:00.131Z,77
2023-03-29T20:55:00.127Z,77
2023-03-29T21:00:00.147Z,77.2
2023-03-29T21:05:00.105Z,77.2
2023-03-29T21:10:00.121Z,77.3
2023-03-29T21:15:00.152Z,77.4
2023-03-29T21:20:00.127Z,77.5
2023-03-29T21:25:00.109Z,77.5
2023-03-29T21:30:00.152Z,77.6
2023-03-29T21:35:00.182Z,77.7
2023-03-29T21:40:00.119Z,77.7
2023-03-29T21:45:00.104Z,77.7
2023-03-29T21:50:00.116Z,77.8
2023-03-29T21:55:00.167Z,77.7
2023-03-29T22:00:00.204Z,77.7
2023-03-29T22:05:00.129Z,77.7
2023-03-29T22:10:00.213Z,77.6
2023-03-29T22:15:00.132Z,77.7
2023-03-29T22:20:00.138Z,77.7
2023-03-29T22:25:00.131Z,77.9
2023-03-29T22:30:00.111Z,78
2023-03-29T22:35:00.116Z,81.6
2023-03-29T22:40:00.133Z,82.9
2023-03-29T22:45:00.127Z,83.1
2023-03-29T22:50:00.137Z,82.9
2023-03-29T22:55:00.167Z,82.9
2023-03-29T23:00:00.164Z,82.9
2023-03-29T23:05:00.152Z,82.8
2023-03-29T23:10:00.167Z,83.1
2023-03-29T23:15:00.136Z,84.5
2023-03-29T23:20:00.105Z,84.9
2023-03-29T23:25:00.110Z,85.4
2023-03-29T23:30:00.100Z,85.6
2023-03-29T23:35:00.149Z,86.2
2023-03-29T23:40:00.165Z,86.4
2023-03-29T23:45:00.093Z,86.5
2023-03-29T23:50:00.168Z,86.4
2023-03-29T23:55:00.159Z,86.2
